Terminal Aerodrome Forecast
Issued by NWS

Home | Current Version | Previous Version | Text Only | Print | Product List | Glossary On
Versions: 1 2 3 4 5 6 7 8 9 10 11 12 13 14 15
000
FTUS46 KMTR 140500
TAFOAK
TAF
KOAK 140530Z 1406/1512 28010KT P6SM FEW010
     FM141000 30005KT P6SM SCT010
     FM141600 28005KT P6SM FEW010
     FM142000 28012KT P6SM SCT150
     FM150400 28006KT P6SM BKN150=

USA.gov is the U.S. government's official web portal to all federal, state and local government web resources and services.